Time;durP1;ratioP1;P1;durP2;ratioP2;P2;SDS_P1;SDS_P2;PMS_P1;PMS_P2;Temp;Humidity;BMP_temperature;BMP_pressure;BME280_temperature;BME280_humidity;BME280_pressure;Samples;Min_cycle;Max_cycle;Signal;HPM_P1;HPM_P2
2021/01/02 00:01:48;;;;;;;43.50;17.43;;;;;;;-0.82;86.23;98198.25;5073976;28;20024;-63
2021/01/02 00:04:44;;;;;;;41.80;17.97;;;;;;;-0.76;85.73;98200.00;5069606;28;20392;-63
2021/01/02 00:07:21;;;;;;;43.80;16.50;;;;;;;-0.72;85.66;98189.19;5068092;28;20039;-63
2021/01/02 00:09:54;;;;;;;38.60;15.97;;;;;;;-0.72;85.63;98195.06;5070443;28;20036;-63
2021/01/02 00:12:54;;;;;;;36.73;16.10;;;;;;;-0.74;85.67;98193.34;5071215;28;20025;-63
2021/01/02 00:15:52;;;;;;;44.17;17.67;;;;;;;-0.57;85.29;98184.44;5027345;28;20120;-62
2021/01/02 00:18:58;;;;;;;40.47;16.00;;;;;;;-0.57;85.25;98192.81;4998867;28;20259;-62
2021/01/02 00:21:26;;;;;;;45.93;17.63;;;;;;;-0.65;84.93;98188.47;4952073;29;20384;-62
2021/01/02 00:24:03;;;;;;;41.83;16.90;;;;;;;-0.55;85.25;98185.28;4955061;29;20536;-62
2021/01/02 00:26:46;;;;;;;42.13;17.93;;;;;;;-0.61;85.02;98183.53;4952584;28;20047;-62
2021/01/02 00:29:22;;;;;;;38.93;18.43;;;;;;;-0.57;85.39;98182.75;4954502;28;20047;-62
2021/01/02 00:32:21;;;;;;;41.23;16.77;;;;;;;-0.67;85.25;98187.59;4949654;29;20078;-62
2021/01/02 00:34:52;;;;;;;42.73;18.13;;;;;;;-0.61;85.10;98186.03;4948475;28;20480;-62
2021/01/02 00:37:20;;;;;;;41.87;16.33;;;;;;;-0.61;85.12;98182.69;4954284;29;20060;-62
2021/01/02 00:39:48;;;;;;;40.93;16.73;;;;;;;-0.69;85.33;98182.53;4955095;28;20086;-62
2021/01/02 00:42:14;;;;;;;34.03;15.40;;;;;;;-0.78;85.00;98201.66;4953005;28;20047;-62
2021/01/02 00:44:41;;;;;;;38.53;16.93;;;;;;;-0.72;85.26;98200.09;4936783;28;20372;-62
2021/01/02 00:47:09;;;;;;;37.70;16.83;;;;;;;-0.77;85.38;98224.34;4955890;28;20398;-62
2021/01/02 00:49:36;;;;;;;36.70;15.30;;;;;;;-0.81;85.60;98216.72;4967989;28;20050;-62
2021/01/02 00:52:55;;;;;;;42.57;17.27;;;;;;;-0.66;85.51;98214.47;4975919;28;20038;-62
2021/01/02 00:55:45;;;;;;;40.43;16.07;;;;;;;-0.59;85.64;98212.06;4957517;28;20069;-63
2021/01/02 00:58:19;;;;;;;35.63;15.53;;;;;;;-0.70;85.22;98225.28;4986491;28;20038;-63
2021/01/02 01:00:51;;;;;;;35.57;16.73;;;;;;;-0.69;85.31;98230.38;4995311;28;20038;-63
2021/01/02 01:03:31;;;;;;;42.00;17.70;;;;;;;-0.77;85.30;98229.38;4988963;28;20042;-62
2021/01/02 01:06:02;;;;;;;46.43;17.27;;;;;;;-0.74;84.87;98228.56;4995061;28;20053;-62
2021/01/02 01:08:32;;;;;;;42.77;18.60;;;;;;;-0.74;85.25;98234.47;4994925;28;20486;-62
2021/01/02 01:11:01;;;;;;;41.40;17.90;;;;;;;-0.73;85.09;98218.53;4994957;28;20123;-62
2021/01/02 01:13:26;;;;;;;42.77;18.30;;;;;;;-0.86;85.10;98224.16;4995039;28;20376;-62
2021/01/02 01:15:52;;;;;;;39.67;18.43;;;;;;;-0.91;85.27;98225.75;4994983;28;20077;-62
2021/01/02 01:18:20;;;;;;;49.43;20.50;;;;;;;-0.84;85.52;98222.50;4978536;28;20054;-62
2021/01/02 01:20:47;;;;;;;45.60;18.87;;;;;;;-0.86;85.04;98225.81;4994788;28;20332;-62
2021/01/02 01:23:35;;;;;;;44.80;17.77;;;;;;;-0.82;85.07;98225.06;4978394;28;20034;-62
2021/01/02 01:26:00;;;;;;;41.53;18.33;;;;;;;-0.85;85.43;98212.44;4975970;28;20054;-61
2021/01/02 01:28:31;;;;;;;44.17;18.40;;;;;;;-0.79;85.38;98212.53;4994775;28;20077;-63
2021/01/02 01:31:00;;;;;;;42.97;19.73;;;;;;;-1.00;85.83;98218.84;5006520;28;20041;-62
2021/01/02 01:33:30;;;;;;;49.83;19.87;;;;;;;-1.00;86.11;98226.41;5073579;28;20095;-62
2021/01/02 01:36:00;;;;;;;54.83;20.60;;;;;;;-1.08;86.59;98235.47;5075383;28;20028;-62
2021/01/02 01:38:27;;;;;;;51.17;22.53;;;;;;;-1.04;86.05;98221.28;5075574;28;20078;-62
2021/01/02 01:41:13;;;;;;;49.47;22.17;;;;;;;-1.00;86.13;98210.47;5075825;28;20055;-62
2021/01/02 01:44:13;;;;;;;44.90;21.00;;;;;;;-1.03;86.27;98207.91;5075181;28;20122;-62
2021/01/02 01:46:53;;;;;;;50.90;20.63;;;;;;;-0.93;86.50;98197.16;5075599;28;20099;-62
2021/01/02 01:49:31;;;;;;;50.80;21.90;;;;;;;-0.92;86.06;98207.28;5069040;28;20488;-62
2021/01/02 01:51:58;;;;;;;50.33;18.83;;;;;;;-0.94;86.29;98193.84;5074679;28;20028;-62
2021/01/02 01:54:44;;;;;;;48.90;19.70;;;;;;;-0.95;86.15;98196.31;5075336;28;20039;-62
2021/01/02 01:57:10;;;;;;;57.45;22.63;;;;;;;-1.06;86.51;98206.16;5075019;28;20354;-62
2021/01/02 01:59:57;;;;;;;57.03;24.57;;;;;;;-1.05;86.66;98205.34;5074610;28;20024;-62
2021/01/02 02:02:57;;;;;;;61.60;23.93;;;;;;;-1.01;87.13;98197.03;5074983;28;20029;-62
2021/01/02 02:05:24;;;;;;;57.43;24.57;;;;;;;-1.09;87.08;98197.69;5075150;28;20035;-62
2021/01/02 02:08:10;;;;;;;61.77;21.53;;;;;;;-1.06;87.24;98201.13;5075950;28;20036;-62
2021/01/02 02:10:43;;;;;;;59.27;22.27;;;;;;;-1.07;87.62;98201.97;5073869;28;20029;-62
2021/01/02 02:13:20;;;;;;;57.90;21.40;;;;;;;-0.94;87.34;98203.91;5074436;28;20021;-62
2021/01/02 02:15:56;;;;;;;61.00;22.87;;;;;;;-0.96;87.35;98203.00;5073438;28;20453;-62
2021/01/02 02:18:23;;;;;;;50.83;21.53;;;;;;;-0.89;87.40;98201.44;5074482;28;20037;-62
2021/01/02 02:21:00;;;;;;;58.30;22.20;;;;;;;-0.80;87.33;98198.25;5074528;28;20398;-62
2021/01/02 02:24:01;;;;;;;65.07;25.03;;;;;;;-0.88;87.13;98198.13;5074736;28;20028;-62
2021/01/02 02:26:33;;;;;;;67.93;23.47;;;;;;;-0.94;87.28;98193.84;5073576;28;20529;-62
2021/01/02 02:29:14;;;;;;;65.37;24.37;;;;;;;-1.01;87.57;98194.50;5075183;28;20495;-62
2021/01/02 02:31:44;;;;;;;62.83;24.77;;;;;;;-0.95;87.33;98197.16;5075241;28;20392;-62
2021/01/02 02:34:11;;;;;;;67.83;25.17;;;;;;;-0.97;87.37;98197.94;5074652;28;20155;-63
2021/01/02 02:36:37;;;;;;;62.80;22.70;;;;;;;-0.98;87.50;98191.22;5074750;28;20024;-62
2021/01/02 02:39:14;;;;;;;56.67;24.60;;;;;;;-0.92;87.38;98187.16;5074128;28;20031;-62
2021/01/02 02:41:55;;;;;;;67.23;22.27;;;;;;;-0.85;87.58;98199.84;5075093;28;20081;-62
2021/01/02 02:44:24;;;;;;;62.33;23.80;;;;;;;-1.00;87.27;98200.41;5073967;28;20035;-62
2021/01/02 02:46:54;;;;;;;56.13;20.30;;;;;;;-0.93;87.20;98199.69;5073283;28;20027;-62
2021/01/02 02:49:23;;;;;;;51.17;21.93;;;;;;;-0.95;87.19;98198.81;5074506;28;20339;-62
2021/01/02 02:51:58;;;;;;;58.17;23.57;;;;;;;-0.99;87.25;98195.41;5074113;28;20032;-62
2021/01/02 02:54:25;;;;;;;59.23;22.83;;;;;;;-1.04;87.53;98193.63;5073876;28;20441;-62
2021/01/02 02:56:50;;;;;;;69.30;24.90;;;;;;;-0.99;88.08;98189.53;5074715;28;20071;-62
2021/01/02 02:59:16;;;;;;;60.73;21.97;;;;;;;-0.90;87.80;98194.75;5073320;28;20048;-62
2021/01/02 03:01:45;;;;;;;54.93;23.07;;;;;;;-0.92;87.16;98194.69;5074773;28;20024;-62
2021/01/02 03:04:11;;;;;;;55.27;21.47;;;;;;;-0.93;87.41;98189.63;5073468;28;20028;-62
2021/01/02 03:06:36;;;;;;;52.93;22.10;;;;;;;-0.93;87.04;98190.47;5074699;28;20059;-61
2021/01/02 03:09:02;;;;;;;54.27;21.97;;;;;;;-0.86;87.02;98178.88;5073691;28;20441;-62
2021/01/02 03:11:30;;;;;;;54.03;22.97;;;;;;;-0.95;86.60;98194.66;5074643;28;20024;-62
2021/01/02 03:13:55;;;;;;;57.67;22.30;;;;;;;-1.04;86.72;98189.44;5071993;28;20131;-62
2021/01/02 03:16:21;;;;;;;56.57;22.10;;;;;;;-0.98;86.82;98176.13;5072292;28;20524;-62
2021/01/02 03:18:46;;;;;;;63.50;21.03;;;;;;;-0.89;87.03;98175.47;5070762;28;20025;-62
2021/01/02 03:21:12;;;;;;;59.30;22.37;;;;;;;-0.89;87.16;98183.81;5068101;28;20357;-62
2021/01/02 03:23:48;;;;;;;56.90;23.00;;;;;;;-0.78;86.85;98184.03;5068386;28;20437;-62
2021/01/02 03:26:15;;;;;;;63.17;23.90;;;;;;;-0.82;86.47;98178.13;5074506;28;20398;-62
2021/01/02 03:28:48;;;;;;;55.43;22.67;;;;;;;-0.71;86.40;98180.81;5074138;28;20430;-62
2021/01/02 03:31:13;;;;;;;56.70;22.77;;;;;;;-0.76;86.34;98178.19;5073125;28;20029;-62
2021/01/02 03:33:39;;;;;;;58.90;23.43;;;;;;;-0.80;86.38;98171.41;5073618;28;20085;-62
2021/01/02 03:36:04;;;;;;;54.80;21.13;;;;;;;-1.01;86.63;98176.91;5073253;28;20097;-61
2021/01/02 03:38:33;;;;;;;60.90;24.23;;;;;;;-0.94;87.14;98178.75;5073780;28;20032;-62
2021/01/02 03:40:59;;;;;;;59.43;22.67;;;;;;;-0.86;86.97;98176.38;5073781;28;20081;-62
2021/01/02 03:43:24;;;;;;;53.50;22.10;;;;;;;-0.86;87.04;98188.94;5072632;28;20399;-62
2021/01/02 03:45:50;;;;;;;62.87;22.47;;;;;;;-0.86;86.97;98191.47;5073001;28;20417;-62
2021/01/02 03:48:16;;;;;;;51.37;21.47;;;;;;;-0.82;87.21;98192.34;5073515;28;20376;-62
2021/01/02 03:50:41;;;;;;;60.70;23.17;;;;;;;-0.77;86.65;98195.81;5072518;28;20021;-62
2021/01/02 03:53:07;;;;;;;61.10;22.57;;;;;;;-0.85;86.77;98198.19;5073583;28;20035;-62
2021/01/02 03:55:32;;;;;;;55.17;22.23;;;;;;;-0.86;86.72;98195.63;5076230;28;20016;-62
2021/01/02 03:57:57;;;;;;;58.97;22.30;;;;;;;-0.85;87.11;98184.75;5077720;28;20020;-62
2021/01/02 04:00:23;;;;;;;61.87;22.97;;;;;;;-0.88;87.10;98184.69;5076014;28;20095;-62
2021/01/02 04:02:48;;;;;;;55.73;20.83;;;;;;;-0.97;87.29;98178.66;5077514;28;20024;-62
2021/01/02 04:05:14;;;;;;;50.83;20.37;;;;;;;-0.90;87.39;98166.22;5075587;28;20024;-62
2021/01/02 04:07:39;;;;;;;51.23;22.33;;;;;;;-0.87;87.27;98158.72;5076615;28;20437;-62
2021/01/02 04:10:05;;;;;;;57.53;22.60;;;;;;;-0.99;87.56;98180.31;5075391;28;20024;-62
2021/01/02 04:12:30;;;;;;;58.03;22.13;;;;;;;-1.06;87.96;98182.69;5076612;28;20032;-62
2021/01/02 04:14:56;;;;;;;46.60;19.63;;;;;;;-0.89;87.92;98186.34;5076347;28;20024;-62
2021/01/02 04:17:21;;;;;;;51.30;23.00;;;;;;;-0.93;87.82;98182.94;5076202;28;20108;-62
2021/01/02 04:19:46;;;;;;;53.80;21.87;;;;;;;-0.99;87.97;98180.31;5075398;28;20024;-62
2021/01/02 04:22:12;;;;;;;55.13;21.77;;;;;;;-0.99;87.89;98176.94;5075131;28;20029;-62
2021/01/02 04:24:37;;;;;;;55.20;22.43;;;;;;;-0.96;87.89;98169.44;5076151;28;20024;-62
2021/01/02 04:27:03;;;;;;;65.03;24.33;;;;;;;-0.90;87.96;98159.50;5075926;28;20031;-62
2021/01/02 04:29:29;;;;;;;55.37;23.00;;;;;;;-0.97;88.21;98158.53;5076724;28;20029;-63
2021/01/02 04:31:55;;;;;;;57.70;23.53;;;;;;;-1.00;87.96;98155.13;5075661;28;20031;-62
2021/01/02 04:34:21;;;;;;;61.20;20.90;;;;;;;-1.11;88.55;98169.16;5076445;28;20076;-62
2021/01/02 04:36:48;;;;;;;58.43;22.77;;;;;;;-1.14;89.27;98174.97;5076067;28;20064;-62
2021/01/02 04:39:13;;;;;;;65.40;24.73;;;;;;;-1.12;89.30;98163.28;5076052;28;20033;-63
2021/01/02 04:41:41;;;;;;;57.77;22.60;;;;;;;-1.01;89.07;98159.31;5076489;28;20032;-62
2021/01/02 04:44:07;;;;;;;51.07;22.50;;;;;;;-1.04;89.43;98166.78;5074009;28;20445;-62
2021/01/02 04:46:36;;;;;;;70.10;24.60;;;;;;;-1.02;88.79;98170.16;5076053;28;20028;-63
2021/01/02 04:49:01;;;;;;;59.03;21.93;;;;;;;-1.04;88.93;98179.38;5075659;28;20037;-63
2021/01/02 04:51:27;;;;;;;64.37;23.70;;;;;;;-0.95;88.65;98174.53;5074659;28;20028;-62
2021/01/02 04:54:02;;;;;;;64.63;28.67;;;;;;;-0.93;88.90;98182.94;5075294;28;20442;-62
2021/01/02 04:56:32;;;;;;;54.78;22.27;;;;;;;-0.93;88.71;98187.97;5075461;28;20021;-62
2021/01/02 04:59:00;;;;;;;58.73;23.70;;;;;;;-0.92;88.68;98193.84;5076360;28;20712;-63
2021/01/02 05:01:28;;;;;;;53.93;22.60;;;;;;;-0.97;88.95;98187.88;5075149;28;20032;-62
2021/01/02 05:03:54;;;;;;;48.73;20.77;;;;;;;-1.03;89.41;98202.88;5076154;28;20039;-63
2021/01/02 05:06:23;;;;;;;56.73;21.77;;;;;;;-0.99;89.36;98195.41;5074514;28;20028;-61
2021/01/02 05:08:52;;;;;;;48.80;20.13;;;;;;;-1.02;89.37;98190.28;5076993;28;20020;-62
2021/01/02 05:11:18;;;;;;;52.57;19.17;;;;;;;-1.04;89.34;98189.44;5074817;28;20020;-62
2021/01/02 05:13:44;;;;;;;56.10;22.03;;;;;;;-1.04;88.93;98189.44;5075135;28;20361;-62
2021/01/02 05:16:34;;;;;;;48.03;21.80;;;;;;;-0.93;89.36;98189.63;5074981;28;20017;-62
2021/01/02 05:19:04;;;;;;;53.03;20.40;;;;;;;-1.00;89.82;98185.31;5076185;28;20119;-62
2021/01/02 05:21:30;;;;;;;45.20;18.97;;;;;;;-0.93;89.98;98195.50;5074671;28;20040;-62
2021/01/02 05:24:02;;;;;;;56.47;22.00;;;;;;;-0.84;90.05;98199.00;5075709;28;20397;-62
2021/01/02 05:26:28;;;;;;;50.63;19.80;;;;;;;-0.88;89.98;98190.56;5074791;28;20039;-62
2021/01/02 05:29:15;;;;;;;49.30;18.97;;;;;;;-0.79;90.06;98184.84;5075818;28;20111;-62
2021/01/02 05:31:49;;;;;;;52.33;21.03;;;;;;;-0.79;90.46;98204.97;5074641;28;20060;-62
2021/01/02 05:34:17;;;;;;;53.23;20.87;;;;;;;-0.65;90.02;98188.47;5074636;28;20094;-63
2021/01/02 05:36:43;;;;;;;50.77;19.77;;;;;;;-0.68;89.86;98185.91;5075280;28;20025;-63
2021/01/02 05:39:12;;;;;;;50.73;19.73;;;;;;;-0.64;89.91;98187.66;5076046;28;20020;-63
2021/01/02 05:41:54;;;;;;;52.27;21.17;;;;;;;-0.56;89.82;98188.66;5073713;28;20059;-62
2021/01/02 05:44:23;;;;;;;53.70;21.10;;;;;;;-0.68;89.74;98190.94;5075674;28;20039;-62
2021/01/02 05:46:52;;;;;;;54.50;18.90;;;;;;;-0.64;90.06;98196.06;5072478;28;20369;-62
2021/01/02 05:49:41;;;;;;;50.97;23.53;;;;;;;-0.57;89.84;98191.97;5075772;28;20403;-63
2021/01/02 05:52:09;;;;;;;49.23;20.93;;;;;;;-0.58;90.25;98192.78;5073494;28;20428;-63
2021/01/02 05:54:39;;;;;;;48.10;20.23;;;;;;;-0.55;90.11;98195.34;5075159;28;20055;-63
2021/01/02 05:57:05;;;;;;;48.40;18.50;;;;;;;-0.55;90.01;98192.84;5073272;28;20456;-62
2021/01/02 05:59:38;;;;;;;46.03;18.70;;;;;;;-0.51;90.05;98184.53;5075417;28;20030;-63
2021/01/02 06:02:19;;;;;;;46.97;18.00;;;;;;;-0.47;90.05;98191.31;5073187;28;20111;-63
2021/01/02 06:04:58;;;;;;;44.17;18.30;;;;;;;-0.48;89.98;98197.19;5073920;28;20028;-63
2021/01/02 06:07:24;;;;;;;40.27;17.40;;;;;;;-0.54;90.29;98194.53;5073646;28;20035;-63
2021/01/02 06:09:51;;;;;;;39.80;16.37;;;;;;;-0.49;90.16;98198.00;5073943;28;20353;-63
2021/01/02 06:12:28;;;;;;;43.33;19.90;;;;;;;-0.46;89.87;98208.94;5073942;28;20028;-63
2021/01/02 06:14:58;;;;;;;61.60;20.33;;;;;;;-0.58;89.58;98207.91;5071776;28;20024;-63
2021/01/02 06:17:34;;;;;;;42.93;20.40;;;;;;;-0.56;90.13;98201.22;5071956;28;20109;-63
2021/01/02 06:20:01;;;;;;;56.80;21.40;;;;;;;-0.56;90.13;98197.03;5072322;28;20028;-63
2021/01/02 06:22:28;;;;;;;49.77;19.03;;;;;;;-0.60;89.67;98207.03;5069580;28;20028;-62
2021/01/02 06:24:54;;;;;;;45.27;17.37;;;;;;;-0.71;89.88;98194.25;5065366;28;20039;-63
2021/01/02 06:27:19;;;;;;;53.03;20.17;;;;;;;-0.78;90.15;98202.50;5066396;28;20029;-63
2021/01/02 06:29:53;;;;;;;48.80;18.73;;;;;;;-0.78;90.47;98222.63;5064439;28;20086;-63
2021/01/02 06:32:22;;;;;;;38.60;17.90;;;;;;;-0.66;90.03;98227.03;5064030;28;20029;-62
2021/01/02 06:35:06;;;;;;;53.27;19.63;;;;;;;-0.64;90.16;98216.19;5064158;28;20420;-62
2021/01/02 06:37:49;;;;;;;42.90;16.70;;;;;;;-0.60;89.84;98205.38;5068550;28;20039;-63
2021/01/02 06:40:22;;;;;;;40.53;16.83;;;;;;;-0.50;90.39;98193.75;5064443;28;20052;-63
2021/01/02 06:42:59;;;;;;;34.33;14.80;;;;;;;-0.50;90.56;98206.34;5064194;28;20052;-63
2021/01/02 06:45:40;;;;;;;31.57;16.70;;;;;;;-0.48;90.23;98208.09;5064297;28;20025;-63
2021/01/02 06:48:15;;;;;;;30.70;15.27;;;;;;;-0.58;90.28;98203.72;5064272;28;20059;-63
2021/01/02 06:50:41;;;;;;;34.13;15.48;;;;;;;-0.64;90.73;98213.69;5064100;28;20365;-63
2021/01/02 06:53:28;;;;;;;35.50;16.40;;;;;;;-0.50;90.60;98223.97;5065463;28;20021;-63
2021/01/02 06:56:04;;;;;;;29.60;13.90;;;;;;;-0.50;90.60;98219.78;5063823;28;21531;-63
2021/01/02 06:58:44;;;;;;;38.63;16.70;;;;;;;-0.40;90.40;98225.84;5063807;28;20050;-63
2021/01/02 07:01:16;;;;;;;31.67;15.67;;;;;;;-0.38;90.26;98233.44;5065327;28;20031;-62
2021/01/02 07:03:41;;;;;;;41.10;19.30;;;;;;;-0.48;90.11;98225.72;5064706;28;20066;-62
2021/01/02 07:06:31;;;;;;;42.40;18.63;;;;;;;-0.40;90.03;98227.50;5060564;28;20361;-62
2021/01/02 07:09:09;;;;;;;44.27;18.87;;;;;;;-0.44;89.77;98229.13;5064852;28;20055;-62
2021/01/02 07:11:35;;;;;;;46.20;18.60;;;;;;;-0.43;90.00;98227.47;5063959;28;20036;-62
2021/01/02 07:14:10;;;;;;;43.93;19.53;;;;;;;-0.38;89.95;98236.78;5062731;28;20028;-62
2021/01/02 07:16:38;;;;;;;55.67;20.42;;;;;;;-0.46;90.14;98229.09;5067035;28;20012;-62
2021/01/02 07:19:05;;;;;;;49.50;22.83;;;;;;;-0.39;89.90;98220.00;5066841;28;20056;-62
2021/01/02 07:21:37;;;;;;;41.33;20.83;;;;;;;-0.29;90.15;98211.75;5073042;28;20027;-62
2021/01/02 07:24:25;;;;;;;49.27;21.67;;;;;;;-0.25;89.48;98216.03;5069839;28;20021;-63
2021/01/02 07:27:01;;;;;;;62.00;29.90;;;;;;;-0.24;89.86;98219.38;5070093;28;20086;-63
2021/01/02 07:29:29;;;;;;;49.23;24.90;;;;;;;-0.22;89.82;98216.09;5075930;28;20016;-62
2021/01/02 07:32:05;;;;;;;56.40;27.77;;;;;;;-0.20;90.04;98227.03;5075055;28;20020;-64
2021/01/02 07:34:31;;;;;;;52.83;23.13;;;;;;;-0.20;90.00;98224.50;5073814;28;20053;-62
2021/01/02 07:37:00;;;;;;;42.43;20.77;;;;;;;-0.15;89.60;98233.00;5078516;28;20387;-62
2021/01/02 07:39:26;;;;;;;40.20;20.20;;;;;;;-0.26;89.23;98226.09;5070990;28;20356;-61
2021/01/02 07:41:54;;;;;;;41.83;20.63;;;;;;;-0.15;89.42;98227.09;5069397;28;20043;-61
2021/01/02 07:44:20;;;;;;;47.43;23.13;;;;;;;-0.14;89.55;98222.09;5070877;28;20089;-61
2021/01/02 07:46:46;;;;;;;44.77;23.93;;;;;;;-0.06;89.28;98227.25;5059472;28;20135;-61
2021/01/02 07:49:16;;;;;;;44.70;22.20;;;;;;;-0.02;nan;98227.34;5058147;28;20509;-61
2021/01/02 07:51:46;;;;;;;42.67;20.53;;;;;;;0.04;89.62;98218.19;5061113;28;20050;-61
2021/01/02 07:54:12;;;;;;;43.43;20.67;;;;;;;0.02;89.82;98225.72;5073130;28;20059;-61
2021/01/02 07:56:42;;;;;;;46.47;22.97;;;;;;;0.10;90.19;98221.63;5074396;28;20044;-62
2021/01/02 07:59:23;;;;;;;48.50;24.10;;;;;;;0.23;89.67;98220.16;5075712;28;20440;-61
2021/01/02 08:02:03;;;;;;;51.23;25.37;;;;;;;0.31;88.88;98231.19;5074661;28;20119;-61
2021/01/02 08:04:30;;;;;;;44.00;23.07;;;;;;;0.33;89.35;98239.63;5075476;28;20036;-61
2021/01/02 08:07:01;;;;;;;38.83;18.13;;;;;;;0.47;89.38;98225.53;5073102;28;20056;-62
2021/01/02 08:09:28;;;;;;;33.20;18.07;;;;;;;0.53;89.63;98235.72;5067138;28;20032;-62
2021/01/02 08:11:55;;;;;;;36.17;19.23;;;;;;;0.60;89.12;98234.97;5065842;28;20099;-62
2021/01/02 08:14:21;;;;;;;41.80;19.83;;;;;;;0.62;89.26;98245.94;5071931;28;20029;-61
2021/01/02 08:16:57;;;;;;;37.07;20.23;;;;;;;0.65;88.73;98247.63;5072586;28;20050;-62
2021/01/02 08:19:22;;;;;;;;;;;;;;;0.64;88.84;98238.38;5066659;28;20029;-62
2021/01/02 08:21:48;;;;;;;33.63;17.43;;;;;;;0.70;88.98;98234.28;5065481;28;19931;-61
2021/01/02 08:24:13;;;;;;;59.40;36.07;;;;;;;0.88;88.35;98236.19;5068520;28;20445;-61
2021/01/02 08:26:39;;;;;;;39.47;19.83;;;;;;;1.01;87.93;98237.19;5065127;28;20036;-61
2021/01/02 08:29:06;;;;;;;35.00;18.30;;;;;;;0.99;87.78;98224.53;5066433;28;20028;-62
2021/01/02 08:31:33;;;;;;;36.03;18.47;;;;;;;0.93;88.48;98242.97;5064701;28;20028;-61
2021/01/02 08:34:00;;;;;;;30.23;17.07;;;;;;;1.02;88.46;98238.91;5072747;28;20457;-62
2021/01/02 08:36:25;;;;;;;35.53;17.53;;;;;;;1.04;88.24;98248.16;5076555;28;20043;-61
2021/01/02 08:38:58;;;;;;;41.17;21.43;;;;;;;1.16;88.26;98255.03;5074857;28;20445;-61
2021/01/02 08:41:26;;;;;;;34.43;16.90;;;;;;;1.25;87.55;98247.56;5073520;28;20024;-61
2021/01/02 08:43:57;;;;;;;28.97;16.23;;;;;;;1.30;87.11;98249.31;5075804;28;20330;-64
2021/01/02 08:46:26;;;;;;;31.63;18.23;;;;;;;1.28;87.07;98255.16;5076678;28;20090;-60
2021/01/02 08:48:51;;;;;;;29.67;16.83;;;;;;;1.19;87.36;98260.97;5075437;28;20099;-62
2021/01/02 08:51:27;;;;;;;28.10;15.00;;;;;;;1.39;87.20;98263.72;5075404;28;20170;-62
2021/01/02 08:53:53;;;;;;;31.53;14.97;;;;;;;1.45;87.04;98266.31;5073579;28;20353;-60
2021/01/02 08:56:22;;;;;;;32.37;16.97;;;;;;;1.44;86.32;98272.22;5074576;28;20047;-60
2021/01/02 08:58:48;;;;;;;28.30;14.70;;;;;;;1.38;86.77;98283.09;5073569;28;20394;-60
2021/01/02 09:01:13;;;;;;;26.40;16.47;;;;;;;1.47;86.17;98282.34;5067267;28;20123;-62
2021/01/02 09:03:39;;;;;;;32.67;17.63;;;;;;;1.54;85.95;98283.25;5055137;28;20035;-61
2021/01/02 09:06:26;;;;;;;29.60;15.83;;;;;;;1.69;86.18;98275.84;5061936;28;20357;-60
2021/01/02 09:09:03;;;;;;;32.73;15.17;;;;;;;1.72;86.05;98279.25;5074941;28;20033;-60
2021/01/02 09:11:48;;;;;;;29.10;17.73;;;;;;;1.73;85.67;98280.94;5074922;28;20039;-60
2021/01/02 09:14:14;;;;;;;33.35;18.10;;;;;;;1.73;85.96;98292.72;5076170;28;20429;-60
2021/01/02 09:16:39;;;;;;;44.47;25.97;;;;;;;1.90;85.25;98296.28;5074742;28;20043;-60
2021/01/02 09:19:05;;;;;;;31.53;16.50;;;;;;;1.96;84.84;98295.47;5075724;28;20029;-60
2021/01/02 09:21:30;;;;;;;28.90;17.37;;;;;;;2.00;84.63;98292.97;5073902;28;20376;-60
2021/01/02 09:23:56;;;;;;;31.47;17.63;;;;;;;2.17;83.83;98295.66;5075359;28;20024;-62
2021/01/02 09:26:35;;;;;;;29.03;16.00;;;;;;;2.19;84.16;98301.59;5074680;28;20440;-61
2021/01/02 09:29:12;;;;;;;23.97;14.60;;;;;;;2.39;83.83;98295.00;5075547;28;20020;-61
2021/01/02 09:31:37;;;;;;;25.63;14.20;;;;;;;2.48;83.38;98291.69;5074279;28;20035;-61
2021/01/02 09:34:03;;;;;;;27.27;14.23;;;;;;;2.60;82.42;98295.16;5075106;28;20041;-61
2021/01/02 09:36:28;;;;;;;32.17;15.80;;;;;;;2.73;81.95;98298.63;5074937;28;20017;-60
2021/01/02 09:38:54;;;;;;;26.03;13.50;;;;;;;2.79;82.53;98301.19;5074032;28;20024;-61
2021/01/02 09:41:21;;;;;;;28.77;15.10;;;;;;;3.01;80.94;98297.13;5074815;28;20629;-61
2021/01/02 09:43:48;;;;;;;30.57;15.73;;;;;;;3.22;80.86;98297.22;5074152;28;20020;-61
2021/01/02 09:46:17;;;;;;;29.30;16.23;;;;;;;3.26;79.69;98295.53;5060946;28;20024;-61
2021/01/02 09:48:48;;;;;;;30.50;15.10;;;;;;;3.49;79.90;98293.94;5054649;28;20107;-60
2021/01/02 09:51:14;;;;;;;29.53;15.70;;;;;;;3.64;79.51;98294.00;5070502;28;20020;-61
2021/01/02 09:53:39;;;;;;;33.53;18.47;;;;;;;3.93;79.12;98296.59;5074684;28;20418;-60
2021/01/02 09:56:05;;;;;;;32.30;17.27;;;;;;;4.00;78.85;98288.16;5074505;28;20031;-61
2021/01/02 09:58:30;;;;;;;27.67;15.77;;;;;;;3.94;78.88;98303.38;5074833;28;20063;-60
2021/01/02 10:00:56;;;;;;;28.83;15.57;;;;;;;4.05;78.98;98296.63;5073963;28;20436;-61
2021/01/02 10:03:21;;;;;;;32.90;15.90;;;;;;;4.03;78.12;98283.09;5075473;28;20032;-61
2021/01/02 10:05:47;;;;;;;24.00;14.00;;;;;;;3.94;78.29;98294.06;5074005;28;20392;-61
2021/01/02 10:08:12;;;;;;;24.77;14.27;;;;;;;4.08;78.08;98291.53;5074162;28;20028;-61
2021/01/02 10:10:38;;;;;;;25.70;14.90;;;;;;;4.06;78.29;98281.41;5073353;28;20031;-61
2021/01/02 10:13:03;;;;;;;25.03;14.77;;;;;;;4.17;77.97;98289.00;5072458;28;20040;-61
2021/01/02 10:15:29;;;;;;;23.87;15.50;;;;;;;4.27;77.61;98280.56;5073465;28;20452;-61
2021/01/02 10:17:55;;;;;;;26.37;14.97;;;;;;;4.31;77.24;98284.81;5072973;28;20039;-61
2021/01/02 10:20:21;;;;;;;28.77;15.37;;;;;;;4.32;77.70;98281.44;5075037;28;20024;-61
2021/01/02 10:22:46;;;;;;;21.90;13.13;;;;;;;4.51;77.37;98282.25;5073305;28;20020;-61
2021/01/02 10:25:13;;;;;;;25.50;15.43;;;;;;;4.79;76.71;98273.78;5074241;28;20031;-61
2021/01/02 10:27:38;;;;;;;22.87;13.93;;;;;;;4.92;75.26;98277.94;5073579;28;20031;-61
2021/01/02 10:30:07;;;;;;;20.63;13.87;;;;;;;5.09;75.53;98267.75;5074165;28;20024;-61
2021/01/02 10:32:32;;;;;;;26.13;14.60;;;;;;;5.18;75.06;98265.16;5072388;28;20408;-62
2021/01/02 10:34:58;;;;;;;27.30;15.60;;;;;;;5.32;75.18;98268.50;5073735;28;20020;-61
2021/01/02 10:37:28;;;;;;;23.70;14.77;;;;;;;5.46;74.71;98256.59;5073662;28;20453;-61
2021/01/02 10:39:55;;;;;;;28.03;16.40;;;;;;;5.55;74.04;98257.41;5073653;28;20365;-61
2021/01/02 10:42:27;;;;;;;23.60;15.97;;;;;;;5.72;73.50;98256.47;5072949;28;20043;-61
2021/01/02 10:44:52;;;;;;;26.07;15.67;;;;;;;5.62;74.63;98251.41;5073674;28;20395;-61
2021/01/02 10:47:24;;;;;;;23.43;14.63;;;;;;;5.80;74.12;98248.78;5073485;28;20058;-61
2021/01/02 10:49:50;;;;;;;23.63;14.23;;;;;;;5.87;74.17;98248.75;5073156;28;20050;-61
2021/01/02 10:52:22;;;;;;;26.67;15.03;;;;;;;5.89;74.34;98244.50;5073921;28;20464;-62
2021/01/02 10:54:49;;;;;;;24.23;13.70;;;;;;;5.86;74.24;98238.53;5073070;28;20052;-61
2021/01/02 10:57:16;;;;;;;20.37;13.23;;;;;;;5.94;74.46;98235.13;5074109;28;20103;-62
2021/01/02 10:59:44;;;;;;;25.10;14.20;;;;;;;6.17;73.83;98229.88;5072801;28;20094;-61
2021/01/02 11:02:10;;;;;;;28.93;17.53;;;;;;;6.28;73.09;98222.16;5074120;28;20081;-61
2021/01/02 11:04:35;;;;;;;27.53;15.63;;;;;;;6.57;72.28;98225.28;5072285;28;20036;-62
2021/01/02 11:07:00;;;;;;;25.13;14.73;;;;;;;6.54;71.74;98222.75;5074315;28;20029;-61
2021/01/02 11:09:26;;;;;;;27.07;17.17;;;;;;;6.62;71.81;98217.59;5073382;28;20028;-61
2021/01/02 11:11:53;;;;;;;24.30;15.07;;;;;;;6.81;71.50;98219.09;5072333;28;20028;-61
2021/01/02 11:14:19;;;;;;;24.23;16.00;;;;;;;6.82;72.20;98213.13;5073435;28;20047;-61
2021/01/02 11:16:47;;;;;;;26.40;15.60;;;;;;;6.84;72.28;98208.84;5070045;28;20036;-61
2021/01/02 11:19:24;;;;;;;22.57;14.37;;;;;;;7.18;71.79;98206.75;5072855;28;20016;-62
2021/01/02 11:21:52;;;;;;;25.70;15.30;;;;;;;7.27;71.47;98209.19;5070274;28;20024;-61
2021/01/02 11:24:20;;;;;;;27.90;17.17;;;;;;;7.40;71.08;98207.31;5072532;28;20031;-62
2021/01/02 11:26:47;;;;;;;32.23;18.47;;;;;;;7.47;71.07;98212.31;5071395;28;20032;-61
2021/01/02 11:29:14;;;;;;;28.27;17.13;;;;;;;7.57;70.86;98202.84;5071315;28;20051;-60
2021/01/02 11:31:40;;;;;;;25.43;17.00;;;;;;;7.64;70.98;98201.88;5073026;28;20224;-60
2021/01/02 11:34:06;;;;;;;25.27;15.30;;;;;;;7.58;70.51;98202.00;5072771;28;20519;-60
2021/01/02 11:36:32;;;;;;;22.57;14.80;;;;;;;7.52;70.65;98194.41;5072462;28;20040;-61